Time;durP1;ratioP1;P1;durP2;ratioP2;P2;SDS_P1;SDS_P2;PMS_P1;PMS_P2;Temp;Humidity;BMP_temperature;BMP_pressure;BME280_temperature;BME280_humidity;BME280_pressure;Samples;Min_cycle;Max_cycle;Signal;HPM_P1;HPM_P2
2024/04/14 00:01:20;;;;;;;9.40;3.20;;;15.30;99.90;;;;;;5497225;26;20002;-71
2024/04/14 00:03:56;;;;;;;8.27;3.00;;;15.30;99.90;;;;;;5498980;26;21210;-70
2024/04/14 00:06:22;;;;;;;12.43;3.20;;;15.30;99.90;;;;;;5498534;26;20002;-70
2024/04/14 00:08:50;;;;;;;14.82;4.25;;;15.30;99.90;;;;;;5499256;26;20431;-71
2024/04/14 00:11:15;;;;;;;7.93;3.05;;;15.30;99.90;;;;;;5499775;26;20012;-73
2024/04/14 00:13:41;;;;;;;8.18;2.95;;;15.20;99.90;;;;;;5498809;26;20002;-73
2024/04/14 00:16:07;;;;;;;10.57;2.97;;;15.20;99.90;;;;;;5500002;26;20002;-72
2024/04/14 00:18:33;;;;;;;9.82;3.60;;;15.10;99.90;;;;;;5499132;26;20024;-72
2024/04/14 00:20:58;;;;;;;8.43;2.90;;;15.10;99.90;;;;;;5498958;26;20006;-72
2024/04/14 00:23:25;;;;;;;8.07;2.85;;;15.10;99.90;;;;;;5498654;26;20074;-72
2024/04/14 00:25:50;;;;;;;10.13;2.88;;;15.10;99.90;;;;;;5499229;26;20017;-71
2024/04/14 00:28:16;;;;;;;7.25;2.50;;;15.10;99.90;;;;;;5499574;26;20468;-75
2024/04/14 00:30:41;;;;;;;7.70;2.78;;;15.10;99.90;;;;;;5498772;26;20002;-71
2024/04/14 00:33:07;;;;;;;8.75;3.00;;;15.00;99.90;;;;;;5499604;26;20002;-72
2024/04/14 00:35:33;;;;;;;7.00;2.95;;;15.00;99.90;;;;;;5499151;26;20010;-72
2024/04/14 00:37:58;;;;;;;8.40;3.10;;;15.00;99.90;;;;;;5499160;26;20021;-74
2024/04/14 00:40:24;;;;;;;7.07;2.95;;;15.00;99.90;;;;;;5498419;26;20010;-72
2024/04/14 00:42:57;;;;;;;12.93;3.10;;;15.10;99.90;;;;;;5498693;26;20039;-71
2024/04/14 00:45:25;;;;;;;11.05;3.25;;;14.90;99.90;;;;;;5499352;26;20002;-73
2024/04/14 00:47:51;;;;;;;12.88;2.95;;;14.90;99.90;;;;;;5498448;26;20046;-72
2024/04/14 00:50:17;;;;;;;15.27;3.63;;;14.90;99.90;;;;;;5499275;26;19998;-71
2024/04/14 00:52:43;;;;;;;7.35;2.80;;;14.90;99.90;;;;;;5497881;26;19998;-73
2024/04/14 00:55:09;;;;;;;10.35;3.50;;;14.90;99.90;;;;;;5499174;26;20013;-71
2024/04/14 00:57:35;;;;;;;10.63;3.47;;;14.90;99.90;;;;;;5498315;26;20005;-70
2024/04/14 01:00:02;;;;;;;9.20;2.92;;;14.90;99.90;;;;;;5499016;26;20010;-72
2024/04/14 01:02:28;;;;;;;9.60;3.05;;;14.80;99.90;;;;;;5498366;26;20052;-72
2024/04/14 01:04:53;;;;;;;11.43;3.10;;;14.80;99.90;;;;;;5496811;26;20006;-72
2024/04/14 01:07:20;;;;;;;9.70;3.40;;;14.80;99.90;;;;;;5499057;26;20009;-72
2024/04/14 01:09:45;;;;;;;7.60;3.17;;;14.80;99.90;;;;;;5497990;26;20009;-72
2024/04/14 01:12:11;;;;;;;9.65;3.28;;;14.70;99.90;;;;;;5498714;26;20462;-70
2024/04/14 01:14:37;;;;;;;11.50;3.55;;;14.70;99.90;;;;;;5497770;26;20031;-72
2024/04/14 01:17:02;;;;;;;9.77;3.25;;;14.70;99.90;;;;;;5497342;26;20009;-72
2024/04/14 01:19:28;;;;;;;11.00;3.80;;;14.60;99.90;;;;;;5498029;26;19998;-72
2024/04/14 01:21:54;;;;;;;13.15;3.40;;;14.60;99.90;;;;;;5498916;26;20012;-71
2024/04/14 01:24:20;;;;;;;11.63;3.35;;;14.60;99.90;;;;;;5497598;26;19994;-73
2024/04/14 01:26:45;;;;;;;11.25;3.35;;;14.60;99.90;;;;;;5498823;26;19998;-72
2024/04/14 01:29:12;;;;;;;10.90;3.72;;;14.50;99.90;;;;;;5497753;26;19998;-72
2024/04/14 01:31:37;;;;;;;11.98;4.10;;;14.50;99.90;;;;;;5498801;26;20026;-72
2024/04/14 01:34:03;;;;;;;12.80;3.90;;;14.50;99.90;;;;;;5497159;26;20002;-73
2024/04/14 01:36:29;;;;;;;11.70;3.60;;;14.40;99.90;;;;;;5498714;26;20002;-72
2024/04/14 01:38:54;;;;;;;12.93;4.00;;;14.30;99.90;;;;;;5496164;26;20434;-73
2024/04/14 01:41:20;;;;;;;13.82;4.18;;;14.40;99.90;;;;;;5496314;26;20010;-71
2024/04/14 01:43:46;;;;;;;11.55;3.70;;;14.40;99.90;;;;;;5497420;26;20006;-71
2024/04/14 01:46:12;;;;;;;11.10;3.90;;;14.40;99.90;;;;;;5497642;26;20013;-72
2024/04/14 01:48:37;;;;;;;9.60;3.42;;;14.40;99.90;;;;;;5498690;26;20008;-71
2024/04/14 01:51:03;;;;;;;10.73;3.10;;;14.30;99.90;;;;;;5497470;26;20116;-71
2024/04/14 01:53:29;;;;;;;9.73;3.50;;;14.20;99.90;;;;;;5498284;26;19998;-74
2024/04/14 01:55:55;;;;;;;10.90;3.05;;;14.10;99.90;;;;;;5497881;26;20549;-70
2024/04/14 01:58:20;;;;;;;11.90;3.45;;;14.20;99.90;;;;;;5498114;26;20008;-72
2024/04/14 02:00:47;;;;;;;11.23;2.95;;;13.90;99.90;;;;;;5497384;26;20013;-72
2024/04/14 02:03:13;;;;;;;11.80;3.90;;;13.80;99.90;;;;;;5496874;26;20373;-70
2024/04/14 02:05:38;;;;;;;14.35;3.40;;;13.70;99.90;;;;;;5497557;26;19998;-71
2024/04/14 02:08:04;;;;;;;16.80;3.10;;;13.70;99.90;;;;;;5496818;26;20042;-70
2024/04/14 02:10:30;;;;;;;11.45;3.38;;;13.60;99.90;;;;;;5498080;26;20010;-71
2024/04/14 02:12:56;;;;;;;13.05;3.15;;;13.60;99.90;;;;;;5496802;26;20025;-71
2024/04/14 02:15:21;;;;;;;15.50;3.70;;;13.60;99.90;;;;;;5496945;26;20002;-72
2024/04/14 02:17:47;;;;;;;18.45;4.55;;;13.50;99.90;;;;;;5497410;26;19994;-70
2024/04/14 02:20:12;;;;;;;9.88;3.08;;;13.50;99.90;;;;;;5497492;26;20013;-72
2024/04/14 02:22:38;;;;;;;10.40;2.70;;;13.30;99.90;;;;;;5497208;26;20009;-70
2024/04/14 02:25:04;;;;;;;11.13;2.67;;;13.30;99.90;;;;;;5496730;26;20009;-73
2024/04/14 02:27:29;;;;;;;11.45;2.92;;;13.30;99.90;;;;;;5498066;26;19998;-70
2024/04/14 02:29:55;;;;;;;8.57;2.80;;;13.20;99.90;;;;;;5497278;26;20002;-71
2024/04/14 02:32:21;;;;;;;12.57;2.78;;;13.20;99.90;;;;;;5497553;26;20454;-73
2024/04/14 02:34:46;;;;;;;16.08;2.95;;;13.10;99.90;;;;;;5496513;26;20010;-74
2024/04/14 02:37:12;;;;;;;9.98;2.92;;;13.00;99.90;;;;;;5497493;26;20006;-70
2024/04/14 02:39:38;;;;;;;7.72;2.28;;;12.90;99.90;;;;;;5495953;26;20017;-71
2024/04/14 02:42:04;;;;;;;10.55;2.78;;;12.90;99.90;;;;;;5496707;26;20002;-72
2024/04/14 02:44:29;;;;;;;8.70;2.47;;;12.80;99.90;;;;;;5497726;26;20002;-70
2024/04/14 02:46:55;;;;;;;13.98;2.25;;;12.70;99.90;;;;;;5496237;26;19997;-72
2024/04/14 02:49:21;;;;;;;10.98;2.42;;;12.60;99.90;;;;;;5497191;26;20451;-72
2024/04/14 02:51:47;;;;;;;11.25;2.58;;;12.50;99.90;;;;;;5497041;26;20380;-72
2024/04/14 02:54:12;;;;;;;17.02;2.70;;;12.60;99.90;;;;;;5497080;26;20001;-72
2024/04/14 02:56:38;;;;;;;10.25;2.28;;;12.50;99.90;;;;;;5495678;26;20010;-70
2024/04/14 02:59:03;;;;;;;9.63;2.60;;;12.50;99.90;;;;;;5496701;26;20018;-73
2024/04/14 03:01:29;;;;;;;17.17;2.83;;;12.50;99.90;;;;;;5496049;26;19998;-72
2024/04/14 03:03:55;;;;;;;11.85;2.92;;;12.50;99.90;;;;;;5495648;26;20002;-71
2024/04/14 03:06:20;;;;;;;16.13;2.33;;;12.50;99.90;;;;;;5497255;26;19998;-71
2024/04/14 03:08:46;;;;;;;10.85;1.80;;;12.50;99.90;;;;;;5496021;26;19994;-71
2024/04/14 03:11:12;;;;;;;10.95;2.50;;;12.40;99.90;;;;;;5496731;26;19998;-71
2024/04/14 03:13:37;;;;;;;9.15;2.00;;;12.40;99.90;;;;;;5495587;26;20013;-71
2024/04/14 03:16:04;;;;;;;9.70;1.83;;;12.40;99.90;;;;;;5492040;26;20002;-71
2024/04/14 03:18:30;;;;;;;8.77;1.67;;;12.30;99.90;;;;;;5496676;26;20335;-71
2024/04/14 03:21:00;;;;;;;7.63;1.60;;;12.30;99.90;;;;;;5496700;26;20002;-72
2024/04/14 03:23:27;;;;;;;9.13;1.92;;;12.30;99.90;;;;;;5493843;26;20026;-70
2024/04/14 03:25:53;;;;;;;12.18;1.83;;;12.20;99.90;;;;;;5491958;26;20020;-68
2024/04/14 03:28:21;;;;;;;8.50;1.92;;;12.20;99.90;;;;;;5495722;26;20033;-69
2024/04/14 03:30:47;;;;;;;8.80;2.10;;;12.10;99.90;;;;;;5497240;26;20034;-70
2024/04/14 03:33:13;;;;;;;9.80;1.77;;;12.00;99.90;;;;;;5493854;26;20510;-70
2024/04/14 03:35:39;;;;;;;6.10;1.35;;;12.10;99.90;;;;;;5499275;26;19994;-70
2024/04/14 03:38:05;;;;;;;9.27;1.48;;;12.00;99.90;;;;;;5493107;26;20092;-72
2024/04/14 03:40:30;;;;;;;13.65;1.83;;;12.00;99.90;;;;;;5495912;26;20002;-70
2024/04/14 03:42:56;;;;;;;8.02;1.75;;;11.90;99.90;;;;;;5493946;26;20012;-71
2024/04/14 03:45:24;;;;;;;7.35;1.60;;;11.90;99.90;;;;;;5491735;26;20580;-71
2024/04/14 03:47:52;;;;;;;6.05;1.58;;;11.90;99.90;;;;;;5495518;26;20001;-71
2024/04/14 03:50:18;;;;;;;9.52;1.77;;;11.90;99.90;;;;;;5492237;26;20343;-74
2024/04/14 03:52:45;;;;;;;5.95;1.45;;;11.90;99.90;;;;;;5494444;26;20002;-71
2024/04/14 03:55:12;;;;;;;7.82;1.70;;;11.90;99.90;;;;;;5494500;26;19998;-74
2024/04/14 03:57:38;;;;;;;8.75;1.90;;;11.90;99.90;;;;;;5499027;26;20476;-72
2024/04/14 04:00:04;;;;;;;8.43;1.63;;;11.80;99.90;;;;;;5498828;26;19998;-71
2024/04/14 04:02:30;;;;;;;12.48;2.13;;;11.80;99.90;;;;;;5497137;26;19995;-72
2024/04/14 04:04:56;;;;;;;6.88;1.67;;;11.70;99.90;;;;;;5495582;26;20002;-73
2024/04/14 04:07:21;;;;;;;10.15;2.00;;;11.70;99.90;;;;;;5496605;26;20001;-71
2024/04/14 04:09:49;;;;;;;11.82;2.22;;;11.70;99.90;;;;;;5496219;26;20002;-71
2024/04/14 04:12:15;;;;;;;10.95;1.98;;;11.60;99.90;;;;;;5496385;26;20005;-70
2024/04/14 04:14:40;;;;;;;6.50;1.83;;;11.50;99.90;;;;;;5494617;26;20034;-71
2024/04/14 04:17:06;;;;;;;8.70;1.67;;;11.40;99.90;;;;;;5499823;26;20002;-73
2024/04/14 04:19:31;;;;;;;11.23;2.08;;;11.50;99.90;;;;;;5499344;26;20009;-72
2024/04/14 04:21:57;;;;;;;9.98;1.63;;;11.30;99.90;;;;;;5494293;26;19994;-72
2024/04/14 04:24:22;;;;;;;11.05;1.50;;;11.30;99.90;;;;;;5493239;26;19998;-74
2024/04/14 04:26:48;;;;;;;13.30;1.85;;;11.30;99.90;;;;;;5497532;26;19998;-77
2024/04/14 04:29:13;;;;;;;6.40;1.35;;;11.20;99.90;;;;;;5496606;26;20058;-72
2024/04/14 04:31:42;;;;;;;10.73;1.55;;;11.20;99.90;;;;;;5498456;26;20016;-72
2024/04/14 04:34:08;;;;;;;10.80;1.52;;;11.10;99.90;;;;;;5498527;26;20006;-73
2024/04/14 04:36:34;;;;;;;7.60;1.40;;;11.00;99.90;;;;;;5497933;26;20395;-73
2024/04/14 04:39:03;;;;;;;7.88;1.30;;;11.00;99.90;;;;;;5498326;26;20009;-72
2024/04/14 04:41:30;;;;;;;8.77;1.38;;;11.00;99.90;;;;;;5497712;26;19998;-73
2024/04/14 04:43:56;;;;;;;15.40;2.05;;;11.00;99.90;;;;;;5498651;26;20002;-72
2024/04/14 04:46:22;;;;;;;15.60;2.03;;;10.90;99.90;;;;;;5498896;26;20030;-71
2024/04/14 04:48:48;;;;;;;11.90;1.83;;;10.90;99.90;;;;;;5498593;26;19998;-71
2024/04/14 04:51:14;;;;;;;10.02;2.13;;;10.80;99.90;;;;;;5498630;26;20027;-73
2024/04/14 04:53:39;;;;;;;10.00;1.58;;;10.80;99.90;;;;;;5499441;26;19999;-72
2024/04/14 04:56:05;;;;;;;8.00;1.60;;;10.80;99.90;;;;;;5498725;26;20014;-73
2024/04/14 04:58:31;;;;;;;12.70;1.67;;;10.70;99.90;;;;;;5498258;26;20010;-72
2024/04/14 05:00:57;;;;;;;12.85;1.67;;;10.80;99.90;;;;;;5499480;26;20016;-72
2024/04/14 05:03:24;;;;;;;7.95;1.45;;;10.80;99.90;;;;;;5498615;26;20021;-71
2024/04/14 05:05:54;;;;;;;11.30;1.58;;;10.70;99.90;;;;;;5496235;26;20531;-72
2024/04/14 05:08:20;;;;;;;10.35;1.80;;;10.80;99.90;;;;;;5498062;26;19998;-71
2024/04/14 05:10:45;;;;;;;9.32;2.05;;;10.80;99.90;;;;;;5498502;26;20013;-73
2024/04/14 05:13:11;;;;;;;11.38;1.77;;;10.80;99.90;;;;;;5497754;26;20006;-73
2024/04/14 05:15:37;;;;;;;18.38;2.55;;;10.70;99.90;;;;;;5498609;26;19998;-73
2024/04/14 05:18:02;;;;;;;10.70;1.88;;;10.80;99.90;;;;;;5498868;26;20013;-71
2024/04/14 05:20:28;;;;;;;11.15;1.60;;;10.70;99.90;;;;;;5498223;26;20009;-72
2024/04/14 05:22:53;;;;;;;9.95;1.70;;;10.70;99.90;;;;;;5499172;26;20006;-72
2024/04/14 05:25:19;;;;;;;8.00;1.60;;;10.70;99.90;;;;;;5497685;26;19997;-72
2024/04/14 05:27:44;;;;;;;14.48;1.67;;;10.80;99.90;;;;;;5495695;26;20002;-71
2024/04/14 05:30:10;;;;;;;12.25;1.65;;;10.70;99.90;;;;;;5497408;26;20051;-72
2024/04/14 05:32:36;;;;;;;13.13;1.55;;;10.80;99.90;;;;;;5497366;26;20009;-72
2024/04/14 05:35:01;;;;;;;15.77;1.80;;;10.70;99.90;;;;;;5495664;26;20039;-72
2024/04/14 05:37:27;;;;;;;15.73;1.92;;;10.70;99.90;;;;;;5496975;26;20103;-74
2024/04/14 05:39:53;;;;;;;8.45;1.45;;;10.80;99.90;;;;;;5495211;26;19990;-71
2024/04/14 05:42:18;;;;;;;11.68;2.00;;;10.80;99.90;;;;;;5495687;26;20005;-72
2024/04/14 05:44:47;;;;;;;10.80;1.83;;;10.90;99.90;;;;;;5497663;26;20013;-71
2024/04/14 05:47:14;;;;;;;17.55;2.20;;;10.90;99.90;;;;;;5496326;26;20017;-72
2024/04/14 05:49:40;;;;;;;9.70;1.55;;;10.80;99.90;;;;;;5495270;26;19998;-72
2024/04/14 05:52:06;;;;;;;12.52;1.80;;;10.80;99.90;;;;;;5487179;26;20052;-73
2024/04/14 05:54:31;;;;;;;15.52;2.30;;;10.80;99.90;;;;;;5493993;26;19998;-71
2024/04/14 05:56:57;;;;;;;14.93;1.95;;;11.00;99.90;;;;;;5496046;26;20009;-73
2024/04/14 05:59:22;;;;;;;10.15;1.92;;;10.90;99.90;;;;;;5492321;26;20006;-71
2024/04/14 06:01:48;;;;;;;20.38;1.98;;;10.90;99.90;;;;;;5494783;26;20014;-73
2024/04/14 06:04:14;;;;;;;16.58;2.53;;;10.90;99.90;;;;;;5497838;26;20004;-71
2024/04/14 06:06:39;;;;;;;15.75;2.20;;;10.80;99.90;;;;;;5491499;26;20013;-73
2024/04/14 06:09:05;;;;;;;13.75;2.55;;;10.80;99.90;;;;;;5493711;26;20026;-73
2024/04/14 06:11:30;;;;;;;15.52;1.90;;;10.80;99.90;;;;;;5497431;26;20008;-72
2024/04/14 06:13:56;;;;;;;13.13;2.25;;;10.80;99.90;;;;;;5498458;26;20145;-72
2024/04/14 06:16:21;;;;;;;15.02;1.88;;;10.70;99.90;;;;;;5495169;26;20006;-75
2024/04/14 06:18:48;;;;;;;15.40;2.13;;;10.70;99.90;;;;;;5492784;26;20022;-73
2024/04/14 06:21:14;;;;;;;16.48;2.70;;;10.70;99.90;;;;;;5496027;26;20594;-72
2024/04/14 06:23:40;;;;;;;11.43;2.00;;;10.80;99.90;;;;;;5495491;26;20009;-73
2024/04/14 06:26:07;;;;;;;15.30;2.38;;;10.80;99.90;;;;;;5497337;26;20002;-72
2024/04/14 06:28:36;;;;;;;15.43;2.10;;;10.80;99.90;;;;;;5496515;26;19998;-73
2024/04/14 06:31:02;;;;;;;11.80;2.05;;;10.80;99.90;;;;;;5496891;26;20343;-71
2024/04/14 06:33:28;;;;;;;11.98;1.92;;;10.90;99.90;;;;;;5494581;26;20008;-71
2024/04/14 06:35:54;;;;;;;14.63;2.15;;;10.90;99.90;;;;;;5495463;26;19994;-73
2024/04/14 06:38:20;;;;;;;14.90;1.98;;;10.90;99.90;;;;;;5494507;26;20009;-74
2024/04/14 06:40:47;;;;;;;8.80;1.67;;;10.90;99.90;;;;;;5492397;26;20014;-73
2024/04/14 06:43:12;;;;;;;12.77;1.92;;;10.90;99.90;;;;;;5492272;26;20009;-73
2024/04/14 06:45:39;;;;;;;11.45;1.55;;;10.90;99.90;;;;;;5495988;26;19998;-73
2024/04/14 06:48:05;;;;;;;10.07;1.50;;;10.90;99.90;;;;;;5496472;26;20014;-71
2024/04/14 06:50:30;;;;;;;11.38;2.05;;;11.00;99.90;;;;;;5496084;26;20006;-74
2024/04/14 06:52:56;;;;;;;12.52;1.88;;;10.90;99.90;;;;;;5492540;26;20013;-73
2024/04/14 06:55:22;;;;;;;12.90;1.70;;;10.90;99.90;;;;;;5485557;26;20022;-73
2024/04/14 06:57:47;;;;;;;14.30;1.98;;;11.00;99.90;;;;;;5485482;26;20006;-72
2024/04/14 07:00:13;;;;;;;10.00;1.40;;;11.10;99.90;;;;;;5490552;26;20018;-77
2024/04/14 07:02:39;;;;;;;12.93;1.90;;;11.10;99.90;;;;;;5484575;26;20002;-74
2024/04/14 07:05:05;;;;;;;12.02;1.67;;;11.20;99.90;;;;;;5489701;26;20470;-73
2024/04/14 07:07:31;;;;;;;18.40;2.30;;;11.20;99.90;;;;;;5493776;26;19990;-73
2024/04/14 07:09:56;;;;;;;12.63;1.40;;;11.20;99.90;;;;;;5494451;26;20017;-72
2024/04/14 07:12:22;;;;;;;8.50;1.63;;;11.30;99.90;;;;;;5493451;26;20009;-73
2024/04/14 07:14:47;;;;;;;13.40;1.48;;;11.40;99.90;;;;;;5491969;26;19994;-72
2024/04/14 07:17:13;;;;;;;14.43;1.80;;;11.40;99.90;;;;;;5494870;26;19994;-75
2024/04/14 07:19:40;;;;;;;12.10;1.77;;;11.40;99.90;;;;;;5494511;26;19998;-73
2024/04/14 07:22:05;;;;;;;9.32;1.73;;;11.40;99.90;;;;;;5494539;26;20030;-72
2024/04/14 07:24:31;;;;;;;5.20;1.38;;;11.50;99.90;;;;;;5494223;26;20010;-73
2024/04/14 07:26:56;;;;;;;9.65;1.40;;;11.40;99.90;;;;;;5495403;26;19998;-72
2024/04/14 07:29:22;;;;;;;6.72;1.52;;;11.40;99.90;;;;;;5493203;26;20007;-72
2024/04/14 07:31:47;;;;;;;6.63;1.70;;;11.60;99.90;;;;;;5494571;26;20047;-72
2024/04/14 07:34:13;;;;;;;9.35;1.63;;;11.70;99.90;;;;;;5495819;26;19994;-73
2024/04/14 07:36:39;;;;;;;9.30;1.90;;;11.90;99.90;;;;;;5494773;26;20027;-70
2024/04/14 07:39:04;;;;;;;12.50;2.08;;;11.90;99.90;;;;;;5494971;26;19998;-71
2024/04/14 07:41:30;;;;;;;10.80;1.83;;;11.90;99.90;;;;;;5493616;26;19998;-73
2024/04/14 07:43:56;;;;;;;11.48;1.85;;;12.00;99.90;;;;;;5496353;26;19994;-75
2024/04/14 07:46:25;;;;;;;10.55;2.28;;;12.20;99.90;;;;;;5494269;26;20005;-75
2024/04/14 07:48:51;;;;;;;9.63;1.35;;;12.20;99.90;;;;;;5495774;26;20326;-72
2024/04/14 07:51:17;;;;;;;8.75;1.58;;;12.20;99.90;;;;;;5495315;26;20378;-73
2024/04/14 07:53:43;;;;;;;11.27;1.58;;;12.30;99.90;;;;;;5493671;26;20015;-72
2024/04/14 07:56:08;;;;;;;7.93;1.48;;;12.40;99.90;;;;;;5496067;26;19998;-75
2024/04/14 07:58:34;;;;;;;7.88;1.50;;;12.40;99.90;;;;;;5492359;26;19995;-75
2024/04/14 08:01:02;;;;;;;13.77;1.73;;;12.50;99.90;;;;;;5495848;26;20009;-72
2024/04/14 08:03:27;;;;;;;11.75;1.65;;;12.50;99.90;;;;;;5494024;26;20071;-71
2024/04/14 08:05:53;;;;;;;7.72;1.55;;;12.50;99.90;;;;;;5495880;26;20002;-74
2024/04/14 08:08:18;;;;;;;11.63;1.50;;;12.50;99.90;;;;;;5493092;26;20526;-72
2024/04/14 08:10:44;;;;;;;14.38;1.85;;;12.60;99.90;;;;;;5495855;26;20052;-73
2024/04/14 08:13:09;;;;;;;9.18;1.38;;;12.70;99.90;;;;;;5494249;26;20024;-71
2024/04/14 08:15:35;;;;;;;9.88;1.42;;;12.90;99.90;;;;;;5495651;26;20018;-72
2024/04/14 08:18:02;;;;;;;6.53;1.40;;;12.90;99.90;;;;;;5498549;26;19994;-71
2024/04/14 08:20:27;;;;;;;8.55;1.30;;;12.90;99.90;;;;;;5495742;26;19995;-74
2024/04/14 08:22:53;;;;;;;7.78;1.45;;;13.00;99.90;;;;;;5496192;26;20004;-71
2024/04/14 08:25:18;;;;;;;10.20;1.98;;;13.10;99.90;;;;;;5494582;26;20007;-72
2024/04/14 08:27:44;;;;;;;8.20;1.58;;;13.00;99.90;;;;;;5488492;26;20005;-71
2024/04/14 08:30:10;;;;;;;9.18;1.50;;;13.00;99.90;;;;;;5492451;26;20006;-72
2024/04/14 08:32:36;;;;;;;9.18;1.48;;;13.10;99.90;;;;;;5492245;26;20016;-72
2024/04/14 08:35:03;;;;;;;8.82;2.03;;;13.30;99.90;;;;;;5488119;26;20010;-72
2024/04/14 08:37:29;;;;;;;6.97;1.00;;;13.50;99.90;;;;;;5490681;26;19998;-73
2024/04/14 08:39:54;;;;;;;11.60;2.00;;;13.60;99.90;;;;;;5496746;26;20000;-70
2024/04/14 08:42:20;;;;;;;8.35;1.50;;;13.60;99.90;;;;;;5496725;26;20042;-69
2024/04/14 08:44:46;;;;;;;9.18;1.40;;;13.70;99.90;;;;;;5498811;26;19998;-71
2024/04/14 08:47:18;;;;;;;5.78;1.40;;;14.00;99.90;;;;;;5496025;26;20001;-73
2024/04/14 08:49:45;;;;;;;9.70;1.30;;;14.00;99.90;;;;;;5489009;26;19994;-72
2024/04/14 08:52:12;;;;;;;14.18;1.75;;;13.80;99.90;;;;;;5490986;26;20446;-68
2024/04/14 08:54:38;;;;;;;10.52;1.60;;;13.60;99.90;;;;;;5487612;26;20088;-68
2024/04/14 08:57:05;;;;;;;6.63;1.58;;;13.50;99.90;;;;;;5491575;26;20002;-72
2024/04/14 08:59:31;;;;;;;7.90;1.50;;;13.50;99.90;;;;;;5491367;26;19994;-70
2024/04/14 09:02:01;;;;;;;10.73;1.25;;;13.60;99.90;;;;;;5495202;26;19990;-68
2024/04/14 09:04:26;;;;;;;11.48;1.60;;;13.80;99.90;;;;;;5495392;26;20003;-71
2024/04/14 09:06:52;;;;;;;7.70;1.30;;;14.00;99.90;;;;;;5497060;26;20395;-68
2024/04/14 09:09:19;;;;;;;9.48;1.27;;;14.20;99.90;;;;;;5496500;26;20039;-67
2024/04/14 09:11:51;;;;;;;7.18;1.60;;;14.40;99.90;;;;;;5488525;26;20635;-69
2024/04/14 09:14:17;;;;;;;8.10;1.80;;;14.40;99.90;;;;;;5493777;26;20053;-71
2024/04/14 09:16:44;;;;;;;6.72;1.27;;;14.20;99.90;;;;;;5493534;26;20052;-68
2024/04/14 09:19:10;;;;;;;8.07;1.20;;;14.00;99.90;;;;;;5494124;26;20022;-72
2024/04/14 09:21:36;;;;;;;9.15;1.40;;;13.70;99.90;;;;;;5492186;26;20067;-68
2024/04/14 09:24:01;;;;;;;7.53;1.63;;;13.90;99.90;;;;;;5496008;26;20005;-74
2024/04/14 09:26:27;;;;;;;6.65;1.50;;;14.00;99.90;;;;;;5495109;26;20014;-71
2024/04/14 09:29:06;;;;;;;5.38;1.48;;;14.10;99.90;;;;;;5494568;26;20518;-71
2024/04/14 09:31:35;;;;;;;7.85;1.42;;;14.10;99.90;;;;;;5493551;26;20042;-73
2024/04/14 09:34:03;;;;;;;8.65;1.73;;;14.20;99.90;;;;;;5498545;26;20042;-69
2024/04/14 09:36:29;;;;;;;7.88;1.45;;;14.10;99.90;;;;;;5489710;26;20010;-70
2024/04/14 09:38:58;;;;;;;10.55;1.60;;;13.90;99.90;;;;;;5496324;26;21045;-72
2024/04/14 09:41:24;;;;;;;8.07;1.40;;;13.80;99.90;;;;;;5497330;26;20002;-71
2024/04/14 09:43:51;;;;;;;8.10;1.30;;;13.50;99.90;;;;;;5497996;26;20002;-70
2024/04/14 09:46:18;;;;;;;5.40;1.25;;;13.40;99.90;;;;;;5497954;26;20017;-71
2024/04/14 09:48:44;;;;;;;5.82;1.30;;;13.60;99.90;;;;;;5498165;26;20058;-70
2024/04/14 09:51:11;;;;;;;9.77;1.42;;;13.90;99.90;;;;;;5496099;26;19999;-74
2024/04/14 09:53:39;;;;;;;9.65;1.23;;;14.10;99.90;;;;;;5492874;26;20018;-71
2024/04/14 09:56:05;;;;;;;5.82;1.38;;;14.50;99.90;;;;;;5496874;26;20013;-70
2024/04/14 09:58:30;;;;;;;5.90;1.48;;;14.80;99.90;;;;;;5495993;26;19998;-71
2024/04/14 10:00:59;;;;;;;6.95;1.13;;;14.80;99.90;;;;;;5498528;26;20059;-70
2024/04/14 10:03:27;;;;;;;8.60;1.40;;;15.10;99.90;;;;;;5497848;26;19998;-70
2024/04/14 10:05:55;;;;;;;8.25;1.60;;;15.10;99.90;;;;;;5496119;26;20516;-70
2024/04/14 10:08:20;;;;;;;7.22;1.45;;;15.30;99.90;;;;;;5491124;26;20564;-77
2024/04/14 10:10:46;;;;;;;10.18;1.58;;;15.50;99.90;;;;;;5496157;26;20018;-72
2024/04/14 10:13:13;;;;;;;6.60;1.15;;;15.50;99.90;;;;;;5497436;26;19998;-72
2024/04/14 10:15:44;;;;;;;8.57;1.20;;;15.40;99.90;;;;;;5496155;26;20022;-70
2024/04/14 10:18:17;;;;;;;5.57;1.15;;;15.50;99.90;;;;;;5497121;26;20021;-71
2024/04/14 10:20:46;;;;;;;6.18;1.70;;;15.70;99.90;;;;;;5497297;26;20037;-73
2024/04/14 10:23:19;;;;;;;10.55;1.55;;;16.10;99.90;;;;;;5495589;26;20002;-72
2024/04/14 10:25:48;;;;;;;6.03;1.20;;;16.10;99.90;;;;;;5497547;26;19998;-72
2024/04/14 10:28:22;;;;;;;3.75;1.15;;;15.60;99.90;;;;;;5496091;26;20013;-73
2024/04/14 10:30:59;;;;;;;6.80;0.90;;;15.30;99.90;;;;;;5495654;26;20485;-71
2024/04/14 10:33:25;;;;;;;6.63;1.08;;;15.00;99.90;;;;;;5493219;26;20035;-75
2024/04/14 10:36:05;;;;;;;6.68;1.23;;;14.90;99.90;;;;;;5495564;26;20014;-71
2024/04/14 10:38:34;;;;;;;5.03;1.02;;;14.70;99.90;;;;;;5495015;26;20013;-70
2024/04/14 10:41:02;;;;;;;5.15;1.20;;;14.80;99.90;;;;;;5496689;26;19998;-69
2024/04/14 10:43:29;;;;;;;6.18;1.30;;;14.80;99.90;;;;;;5495174;26;20014;-69
2024/04/14 10:46:00;;;;;;;8.25;1.73;;;14.80;99.90;;;;;;5495689;26;20545;-70
2024/04/14 10:48:26;;;;;;;7.28;1.40;;;14.50;99.90;;;;;;5496429;26;20002;-69
2024/04/14 10:50:51;;;;;;;7.28;1.50;;;14.70;99.90;;;;;;5495712;26;19998;-71
2024/04/14 10:53:17;;;;;;;7.68;1.20;;;14.60;99.90;;;;;;5497163;26;20010;-69
2024/04/14 10:55:42;;;;;;;5.35;1.30;;;14.70;99.90;;;;;;5493729;26;20002;-70
2024/04/14 10:58:09;;;;;;;6.00;1.42;;;14.60;99.90;;;;;;5496408;26;20009;-70
2024/04/14 11:00:35;;;;;;;7.90;1.55;;;14.80;99.90;;;;;;5497344;26;20013;-69
2024/04/14 11:03:01;;;;;;;7.25;1.02;;;15.00;99.90;;;;;;5496133;26;19998;-72
2024/04/14 11:05:26;;;;;;;7.28;1.30;;;15.30;99.90;;;;;;5497290;26;19994;-73
2024/04/14 11:07:53;;;;;;;6.15;1.63;;;15.60;99.90;;;;;;5495608;26;20002;-70
2024/04/14 11:10:20;;;;;;;7.20;1.20;;;15.60;99.90;;;;;;5496289;26;20069;-72
2024/04/14 11:12:47;;;;;;;7.55;1.42;;;15.80;99.90;;;;;;5497045;26;20002;-71
2024/04/14 11:15:13;;;;;;;8.57;1.40;;;15.60;99.90;;;;;;5494730;26;20013;-69
2024/04/14 11:17:39;;;;;;;7.10;1.45;;;15.60;99.90;;;;;;5497032;26;19998;-71
2024/04/14 11:20:06;;;;;;;3.67;1.10;;;15.70;99.90;;;;;;5495932;26;20002;-71
2024/04/14 11:22:32;;;;;;;5.88;1.17;;;15.90;99.90;;;;;;5495477;26;19998;-71
2024/04/14 11:24:58;;;;;;;8.95;1.20;;;16.00;99.90;;;;;;5495761;26;20012;-71
2024/04/14 11:27:24;;;;;;;4.82;1.23;;;15.80;99.90;;;;;;5496614;26;19998;-72
2024/04/14 11:29:50;;;;;;;6.35;1.10;;;15.80;99.90;;;;;;5494611;26;20009;-73
2024/04/14 11:32:34;;;;;;;7.70;1.48;;;15.90;99.90;;;;;;5496159;26;19998;-68
2024/04/14 11:35:08;;;;;;;8.75;1.70;;;16.10;99.90;;;;;;5495939;26;20126;-71
2024/04/14 11:37:36;;;;;;;7.55;1.40;;;16.00;99.90;;;;;;5495739;26;19998;-70
2024/04/14 11:40:03;;;;;;;6.00;1.00;;;15.80;99.90;;;;;;5492664;26;20331;-70
2024/04/14 11:42:29;;;;;;;3.72;1.00;;;15.90;99.90;;;;;;5495940;26;20002;-71
2024/04/14 11:44:57;;;;;;;6.93;1.10;;;15.90;99.90;;;;;;5496553;26;20009;-70
2024/04/14 11:47:24;;;;;;;6.15;1.08;;;16.20;99.90;;;;;;5495948;26;20002;-70
2024/04/14 11:49:50;;;;;;;5.88;0.98;;;16.40;99.90;;;;;;5498550;26;20047;-70
2024/04/14 11:52:15;;;;;;;3.10;0.90;;;16.20;99.90;;;;;;5498276;26;20010;-70
2024/04/14 11:54:41;;;;;;;6.38;1.40;;;16.30;99.90;;;;;;5500063;26;20002;-71
2024/04/14 11:57:06;;;;;;;3.30;1.13;;;16.30;99.90;;;;;;5499051;26;20009;-72
2024/04/14 11:59:32;;;;;;;3.58;0.90;;;16.50;99.90;;;;;;5499010;26;20018;-71
2024/04/14 12:01:58;;;;;;;5.90;1.33;;;16.40;99.90;;;;;;5499664;26;20009;-71
2024/04/14 12:04:24;;;;;;;5.68;1.05;;;16.30;99.90;;;;;;5495057;26;20006;-69
2024/04/14 12:06:49;;;;;;;6.05;1.10;;;16.10;99.90;;;;;;5498742;26;20390;-73
2024/04/14 12:09:16;;;;;;;5.25;0.98;;;15.80;99.90;;;;;;5498552;26;20030;-72
2024/04/14 12:11:42;;;;;;;4.55;1.10;;;15.50;99.90;;;;;;5499434;26;20008;-70
2024/04/14 12:14:07;;;;;;;5.70;1.13;;;15.70;99.90;;;;;;5498329;26;19998;-74
2024/04/14 12:16:36;;;;;;;8.38;1.20;;;15.70;99.90;;;;;;5493621;26;20006;-73
2024/04/14 12:19:02;;;;;;;7.88;1.15;;;15.90;99.90;;;;;;5490319;26;20002;-70
2024/04/14 12:21:28;;;;;;;6.70;1.23;;;15.80;99.90;;;;;;5495641;26;20006;-70
2024/04/14 12:23:53;;;;;;;3.70;1.10;;;15.90;99.90;;;;;;5491477;26;19990;-70
2024/04/14 12:26:19;;;;;;;6.13;1.23;;;15.90;99.90;;;;;;5493707;26;20009;-70
2024/04/14 12:28:45;;;;;;;4.55;1.08;;;16.20;99.90;;;;;;5495759;26;20006;-70
2024/04/14 12:31:10;;;;;;;6.45;1.60;;;16.30;99.90;;;;;;5493034;26;20013;-70
2024/04/14 12:33:36;;;;;;;4.18;1.13;;;16.40;99.90;;;;;;5496916;26;20006;-69
2024/04/14 12:36:01;;;;;;;3.88;1.15;;;16.70;99.90;;;;;;5492127;26;20006;-70
2024/04/14 12:38:29;;;;;;;4.97;1.15;;;17.10;99.90;;;;;;5494391;26;20020;-71